Terminal Aerodrome Forecast
Issued by NWS Sioux Falls, SD

Home | Current Version | Previous Version | Graphics & Text | Print | Product List | Glossary On
Versions: 1 2 3 4 5 6 7 8 9 10 11 12 13 14 15 16 17 18 19 20
000
FTUS43 KFSD 210814 AAA
TAFFSD
TAF AMD
KFSD 210814Z 2108/2206 VRB03KT P6SM MIFG SKC
      TEMPO 2108/2112 2SM BR FEW001
     FM211500 20007KT P6SM FEW250
     FM211900 22011KT P6SM FEW250=

USA.gov is the U.S. government's official web portal to all federal, state and local government web resources and services.